Time;durP1;ratioP1;P1;durP2;ratioP2;P2;SDS_P1;SDS_P2;PMS_P1;PMS_P2;Temp;Humidity;BMP_temperature;BMP_pressure;BME280_temperature;BME280_humidity;BME280_pressure;Samples;Min_cycle;Max_cycle;Signal;HPM_P1;HPM_P2
2021/03/18 00:03:51;;;;;;;12.05;7.03;;;-0.10;99.90;;;;;;8325190;28;20076;-64
2021/03/18 00:07:52;;;;;;;9.45;4.75;;;0.00;99.90;;;;;;8326194;28;20030;-64
2021/03/18 00:11:52;;;;;;;6.60;3.53;;;0.00;99.90;;;;;;8321030;28;20517;-64
2021/03/18 00:15:53;;;;;;;20.35;9.27;;;0.10;99.90;;;;;;8327424;28;20025;-65
2021/03/18 00:19:54;;;;;;;13.05;7.93;;;0.10;99.90;;;;;;8326184;28;20051;-64
2021/03/18 00:23:55;;;;;;;15.88;8.75;;;-0.10;99.90;;;;;;8358756;28;20059;-64
2021/03/18 00:27:55;;;;;;;15.35;7.93;;;0.20;99.90;;;;;;8360343;28;20021;-65
2021/03/18 00:31:56;;;;;;;12.38;8.02;;;0.10;99.90;;;;;;8358995;28;20060;-65
2021/03/18 00:35:57;;;;;;;15.77;7.63;;;0.00;99.90;;;;;;8360445;28;20100;-65
2021/03/18 00:39:58;;;;;;;12.73;5.93;;;0.20;99.90;;;;;;8360341;28;20044;-65
2021/03/18 00:43:59;;;;;;;14.88;7.07;;;0.20;99.90;;;;;;8358780;28;20540;-65
2021/03/18 00:48:00;;;;;;;2.60;1.27;;;0.00;99.90;;;;;;8326621;28;20029;-64
2021/03/18 00:52:01;;;;;;;13.35;6.15;;;-0.20;99.90;;;;;;8342441;28;20021;-64
2021/03/18 00:56:03;;;;;;;14.18;7.32;;;-0.40;99.90;;;;;;8359171;28;20114;-64
2021/03/18 01:00:14;;;;;;;13.95;6.35;;;-0.50;99.90;;;;;;8358942;28;20056;-65
2021/03/18 01:04:15;;;;;;;13.25;7.65;;;-0.60;99.90;;;;;;8330284;28;20026;-63
2021/03/18 01:08:18;;;;;;;16.55;8.73;;;-0.60;99.90;;;;;;8323531;28;20036;-64
2021/03/18 01:12:18;;;;;;;15.38;7.57;;;-0.60;99.90;;;;;;8325948;28;20022;-65
2021/03/18 01:16:24;;;;;;;16.52;9.13;;;-0.50;99.90;;;;;;8324714;28;20554;-65
2021/03/18 01:20:26;;;;;;;15.63;8.95;;;-0.60;99.90;;;;;;8329333;28;20032;-64
2021/03/18 01:24:26;;;;;;;14.77;8.27;;;-0.30;99.90;;;;;;8359101;28;20029;-65
2021/03/18 01:28:28;;;;;;;14.07;7.32;;;-0.20;99.90;;;;;;8359446;28;20551;-64
2021/03/18 01:32:29;;;;;;;17.00;7.82;;;-0.10;99.90;;;;;;8357856;28;20083;-64
2021/03/18 01:36:32;;;;;;;16.95;7.97;;;-0.10;99.90;;;;;;8359348;28;20025;-64
2021/03/18 01:40:33;;;;;;;14.52;8.27;;;0.10;99.90;;;;;;8358390;28;20036;-64
2021/03/18 01:44:34;;;;;;;20.63;9.52;;;-0.10;99.90;;;;;;8356469;28;20048;-63
2021/03/18 01:48:35;;;;;;;15.93;7.97;;;-0.20;99.90;;;;;;8357998;28;20495;-64
2021/03/18 01:52:37;;;;;;;14.23;8.15;;;-0.20;99.90;;;;;;8349931;28;20025;-64
2021/03/18 01:56:37;;;;;;;14.20;8.88;;;-0.40;99.90;;;;;;8318788;28;20030;-64
2021/03/18 02:00:42;;;;;;;14.85;8.52;;;-0.50;99.90;;;;;;8292972;28;20036;-64
2021/03/18 02:04:42;;;;;;;16.75;8.85;;;-0.30;99.90;;;;;;8292313;28;20037;-64
2021/03/18 02:08:44;;;;;;;19.63;9.13;;;-0.30;99.90;;;;;;8304541;28;20562;-65
2021/03/18 02:12:44;;;;;;;15.60;8.40;;;-0.20;99.90;;;;;;8328449;28;20025;-65
2021/03/18 02:16:49;;;;;;;14.75;7.85;;;-0.20;99.90;;;;;;8330474;28;20083;-65
2021/03/18 02:21:23;;;;;;;18.23;8.82;;;-0.20;99.90;;;;;;8336523;28;20276;-65
2021/03/18 02:25:33;;;;;;;17.20;8.30;;;0.10;99.90;;;;;;8361888;28;20521;-64
2021/03/18 02:30:16;;;;;;;10.30;5.40;;;0.20;99.90;;;;;;8363587;28;20541;-64
2021/03/18 02:34:52;;;;;;;3.90;2.88;;;0.10;99.90;;;;;;8362921;28;20044;-64
2021/03/18 02:38:58;;;;;;;21.95;9.77;;;0.00;99.90;;;;;;8364423;28;20033;-65
2021/03/18 02:43:04;;;;;;;15.88;8.07;;;-0.10;99.90;;;;;;8363348;28;20529;-64
2021/03/18 02:47:09;;;;;;;8.57;3.60;;;0.00;99.90;;;;;;8363623;28;20032;-64
2021/03/18 02:51:14;;;;;;;14.30;7.03;;;-0.10;99.90;;;;;;8362185;28;20044;-64
2021/03/18 02:55:16;;;;;;;20.27;9.82;;;-0.20;99.90;;;;;;8363031;28;20024;-64
2021/03/18 02:59:23;;;;;;;19.30;10.52;;;-0.10;99.90;;;;;;8326780;28;20041;-64
2021/03/18 03:03:25;;;;;;;21.80;11.30;;;-0.10;99.90;;;;;;8329263;28;20507;-64
2021/03/18 03:07:28;;;;;;;10.02;4.97;;;-0.10;99.90;;;;;;8330240;28;20033;-64
2021/03/18 03:11:30;;;;;;;21.42;10.38;;;0.00;99.90;;;;;;8327883;28;20051;-65
2021/03/18 03:15:32;;;;;;;20.67;10.43;;;-0.10;99.90;;;;;;8324853;28;20026;-64
2021/03/18 03:19:38;;;;;;;21.65;9.75;;;-0.20;99.90;;;;;;8328896;28;20026;-64
2021/03/18 03:23:40;;;;;;;19.80;9.48;;;-0.20;99.90;;;;;;8358426;28;20075;-65
2021/03/18 03:27:46;;;;;;;19.48;9.68;;;0.00;99.90;;;;;;8361921;28;20029;-64
2021/03/18 03:31:47;;;;;;;17.48;7.82;;;0.10;99.90;;;;;;8362099;28;20025;-64
2021/03/18 03:35:48;;;;;;;12.60;7.35;;;0.10;99.90;;;;;;8361444;28;20112;-65
2021/03/18 03:39:48;;;;;;;15.00;8.48;;;0.00;99.90;;;;;;8362033;28;20399;-65
2021/03/18 03:43:49;;;;;;;18.95;9.20;;;-0.10;99.90;;;;;;8360178;28;20029;-65
2021/03/18 03:47:50;;;;;;;15.30;7.80;;;-0.30;99.90;;;;;;8361810;28;20025;-65
2021/03/18 03:52:15;;;;;;;17.42;8.52;;;-0.30;99.90;;;;;;8344468;28;20057;-65
2021/03/18 03:56:32;;;;;;;19.00;10.15;;;-0.40;99.90;;;;;;8326762;28;20021;-64
2021/03/18 04:00:35;;;;;;;14.38;6.90;;;-0.40;99.90;;;;;;8326727;28;20548;-64
2021/03/18 04:04:44;;;;;;;15.27;7.78;;;-0.20;99.90;;;;;;8327729;28;20033;-63
2021/03/18 04:08:46;;;;;;;14.95;7.13;;;-0.30;99.90;;;;;;8321933;28;20304;-65
2021/03/18 04:12:47;;;;;;;23.13;10.15;;;-0.20;99.90;;;;;;8327141;28;20040;-65
2021/03/18 04:16:48;;;;;;;21.17;9.15;;;-0.20;99.90;;;;;;8327266;28;20439;-64
2021/03/18 04:20:49;;;;;;;18.33;8.35;;;-0.20;99.90;;;;;;8333697;28;20021;-65
2021/03/18 04:24:52;;;;;;;17.70;9.23;;;0.00;99.90;;;;;;8360466;28;20036;-64
2021/03/18 04:28:53;;;;;;;19.38;9.20;;;-0.20;99.90;;;;;;8360152;28;20078;-64
2021/03/18 04:32:55;;;;;;;18.33;8.93;;;-0.40;99.90;;;;;;8359585;28;20029;-64
2021/03/18 04:36:57;;;;;;;18.92;9.85;;;-0.20;99.90;;;;;;8360449;28;20036;-64
2021/03/18 04:40:58;;;;;;;21.00;9.45;;;-0.30;99.90;;;;;;8376585;22;20069;-68
2021/03/18 04:44:59;;;;;;;25.60;9.85;;;-0.20;99.90;;;;;;8325399;28;20026;-68
2021/03/18 04:49:02;;;;;;;18.25;8.43;;;-0.10;99.90;;;;;;8326527;28;20034;-68
2021/03/18 04:53:02;;;;;;;17.48;8.18;;;-0.20;99.90;;;;;;8341390;28;20075;-68
2021/03/18 04:57:03;;;;;;;24.88;9.85;;;-0.30;99.90;;;;;;8326670;28;20026;-68
2021/03/18 05:01:05;;;;;;;22.10;10.75;;;-0.30;99.90;;;;;;8326724;28;20117;-68
2021/03/18 05:05:11;;;;;;;23.25;10.77;;;-0.30;99.90;;;;;;8326421;28;20041;-68
2021/03/18 05:09:12;;;;;;;22.13;10.65;;;-0.40;99.90;;;;;;8324087;28;20053;-69
2021/03/18 05:13:14;;;;;;;20.73;10.07;;;-0.50;99.90;;;;;;8298703;28;20377;-69
2021/03/18 05:17:17;;;;;;;20.15;10.02;;;-0.30;99.90;;;;;;8293852;28;20018;-68
2021/03/18 05:21:18;;;;;;;23.17;8.77;;;-0.30;99.90;;;;;;8329118;28;20403;-69
2021/03/18 05:25:30;;;;;;;23.30;10.40;;;-0.50;99.90;;;;;;8360211;28;20029;-68
2021/03/18 05:29:31;;;;;;;25.73;9.98;;;;;;;;;;8356940;28;20025;-68
2021/03/18 05:33:31;;;;;;;23.50;10.25;;;-0.90;99.90;;;;;;8324752;28;20022;-69
2021/03/18 05:37:32;;;;;;;23.05;10.52;;;-0.90;99.90;;;;;;8325401;28;20021;-69
2021/03/18 05:41:33;;;;;;;27.38;11.38;;;-0.60;99.90;;;;;;8326086;28;20029;-69
2021/03/18 05:45:34;;;;;;;21.35;10.57;;;-0.40;99.90;;;;;;8325173;28;20033;-69
2021/03/18 05:49:36;;;;;;;21.90;11.27;;;-0.30;99.90;;;;;;8326548;28;20403;-68
2021/03/18 05:53:38;;;;;;;23.92;10.50;;;-0.20;99.90;;;;;;8346664;28;20021;-68
2021/03/18 05:57:40;;;;;;;27.10;11.23;;;-0.10;99.90;;;;;;8329624;28;20455;-69
2021/03/18 06:01:41;;;;;;;21.23;11.00;;;-0.30;99.90;;;;;;8329677;28;20052;-69
2021/03/18 06:05:42;;;;;;;24.75;11.05;;;-0.20;99.90;;;;;;8329460;28;20083;-68
2021/03/18 06:09:42;;;;;;;22.25;10.95;;;0.30;99.90;;;;;;8328773;28;20022;-69
2021/03/18 06:13:43;;;;;;;24.70;11.55;;;0.70;99.90;;;;;;8329904;28;20029;-69
2021/03/18 06:17:44;;;;;;;23.15;11.38;;;0.70;99.90;;;;;;8330454;28;20022;-68
2021/03/18 06:21:50;;;;;;;24.88;11.43;;;0.60;99.90;;;;;;8330324;28;20048;-69
2021/03/18 06:25:51;;;;;;;26.13;13.38;;;0.80;99.90;;;;;;8330333;28;20078;-69
2021/03/18 06:29:52;;;;;;;24.15;10.35;;;0.90;99.90;;;;;;8327928;28;20025;-69
2021/03/18 06:33:52;;;;;;;24.75;11.20;;;1.10;99.90;;;;;;8329170;28;20030;-68
2021/03/18 06:37:53;;;;;;;26.58;11.15;;;1.30;99.90;;;;;;8330670;28;20509;-70
2021/03/18 06:41:59;;;;;;;18.48;10.20;;;1.30;99.90;;;;;;8330269;28;20041;-69
2021/03/18 06:46:16;;;;;;;22.00;11.52;;;1.40;99.90;;;;;;8327622;28;20032;-67
2021/03/18 06:50:24;;;;;;;22.90;10.43;;;1.60;99.90;;;;;;8328480;28;20052;-67
2021/03/18 06:54:24;;;;;;;20.08;10.43;;;2.00;99.90;;;;;;8325154;28;20022;-67
2021/03/18 06:58:26;;;;;;;17.65;10.07;;;;;;;;;;8329003;28;20025;-67
2021/03/18 07:02:27;;;;;;;20.95;10.07;;;2.70;99.90;;;;;;8327125;28;20500;-67
2021/03/18 07:06:30;;;;;;;16.92;9.10;;;3.20;99.90;;;;;;8327807;28;20034;-68
2021/03/18 07:10:34;;;;;;;16.88;10.05;;;3.30;99.90;;;;;;8329550;28;20479;-68
2021/03/18 07:14:36;;;;;;;16.92;9.52;;;3.20;99.90;;;;;;8327737;28;20072;-68
2021/03/18 07:18:37;;;;;;;20.10;9.88;;;3.40;99.90;;;;;;8330572;28;20088;-67
2021/03/18 07:22:51;;;;;;;16.05;9.20;;;3.60;99.90;;;;;;8329379;28;20471;-66
2021/03/18 07:26:52;;;;;;;16.00;9.13;;;3.60;99.90;;;;;;8328843;28;20514;-68
2021/03/18 07:30:53;;;;;;;15.30;9.13;;;3.50;99.90;;;;;;8327802;28;20038;-68
2021/03/18 07:34:54;;;;;;;16.13;9.13;;;;;;;;;;8322392;28;20052;-65
2021/03/18 07:38:55;;;;;;;19.65;10.38;;;;;;;;;;8294923;28;20507;-65
2021/03/18 07:42:57;;;;;;;14.20;9.13;;;;;;;;;;8295969;28;20156;-65
2021/03/18 07:46:58;;;;;;;16.08;10.10;;;;;;;;;;8309184;28;20037;-66
2021/03/18 07:51:00;;;;;;;16.25;9.30;;;;;;;;;;8332150;28;20112;-65
2021/03/18 07:55:01;;;;;;;18.35;9.98;;;;;;;;;;8325960;28;20036;-66
2021/03/18 07:59:08;;;;;;;17.08;9.63;;;;;;;;;;8326359;28;20025;-66
2021/03/18 08:03:30;;;;;;;14.50;9.30;;;;;;;;;;8327445;28;20033;-66
2021/03/18 08:07:36;;;;;;;18.85;9.75;;;;;;;;;;8320427;28;20033;-67
2021/03/18 08:11:38;;;;;;;17.80;9.75;;;;;;;;;;8295441;28;20030;-66
2021/03/18 08:15:39;;;;;;;17.27;10.35;;;;;;;;;;8305498;28;20041;-65
2021/03/18 08:19:41;;;;;;;16.52;9.27;;;;;;;;;;8327777;28;20108;-66
2021/03/18 08:23:43;;;;;;;18.13;10.15;;;5.30;99.90;;;;;;8343000;28;20025;-66
2021/03/18 08:27:43;;;;;;;16.77;10.02;;;5.60;99.90;;;;;;8327334;28;20468;-66
2021/03/18 08:32:02;;;;;;;16.55;10.35;;;6.00;99.90;;;;;;8326835;28;20052;-66
2021/03/18 08:36:26;;;;;;;16.70;9.93;;;6.10;99.90;;;;;;8326213;28;20584;-66
2021/03/18 08:40:29;;;;;;;15.02;8.95;;;6.50;99.90;;;;;;8319798;28;20026;-66
2021/03/18 08:44:41;;;;;;;16.08;9.73;;;6.50;99.90;;;;;;8324905;28;20183;-66
2021/03/18 08:49:19;;;;;;;13.70;9.43;;;6.40;99.90;;;;;;8326134;28;20037;-66
2021/03/18 08:53:33;;;;;;;17.48;9.93;;;6.10;99.90;;;;;;8352616;28;20029;-66
2021/03/18 08:57:35;;;;;;;15.98;10.07;;;5.90;99.90;;;;;;8334153;28;20109;-65
2021/03/18 09:01:35;;;;;;;15.15;9.30;;;5.80;99.90;;;;;;8325361;28;20112;-65
2021/03/18 09:05:36;;;;;;;17.52;10.10;;;5.90;99.90;;;;;;8325236;28;20083;-65
2021/03/18 09:09:38;;;;;;;15.13;9.73;;;5.80;99.90;;;;;;8326103;28;20164;-67
2021/03/18 09:13:38;;;;;;;15.65;9.15;;;5.80;99.90;;;;;;8324954;28;20104;-66
2021/03/18 09:17:40;;;;;;;13.18;8.35;;;5.30;99.90;;;;;;8326869;28;20033;-66
2021/03/18 09:21:43;;;;;;;12.82;8.52;;;5.60;99.90;;;;;;8346000;28;20033;-66
2021/03/18 09:25:47;;;;;;;13.77;9.05;;;6.00;99.90;;;;;;8344547;28;20029;-66
2021/03/18 09:29:48;;;;;;;14.23;9.30;;;6.10;99.90;;;;;;8332456;28;20037;-66
2021/03/18 09:33:51;;;;;;;16.48;7.28;;;6.10;99.90;;;;;;8331395;28;20033;-65
2021/03/18 09:37:52;;;;;;;11.55;7.43;;;6.20;99.90;;;;;;8331025;28;20067;-65
2021/03/18 09:41:59;;;;;;;13.52;7.10;;;6.20;99.90;;;;;;8330557;28;20032;-67
2021/03/18 09:46:03;;;;;;;14.50;7.85;;;6.40;99.90;;;;;;8324737;28;20022;-66
2021/03/18 09:50:05;;;;;;;11.70;7.43;;;6.40;99.90;;;;;;8331504;28;20077;-67
2021/03/18 09:54:08;;;;;;;14.45;8.15;;;5.70;99.90;;;;;;8318776;28;20408;-66
2021/03/18 09:58:11;;;;;;;15.98;8.02;;;5.90;99.90;;;;;;8331767;28;20025;-66
2021/03/18 10:02:17;;;;;;;14.55;8.23;;;5.80;99.90;;;;;;8329776;28;20181;-67
2021/03/18 10:06:24;;;;;;;11.82;7.55;;;6.50;99.90;;;;;;8331508;28;20018;-67
2021/03/18 10:10:26;;;;;;;13.40;8.07;;;6.30;99.90;;;;;;8330694;28;20033;-65
2021/03/18 10:14:32;;;;;;;12.93;7.93;;;5.80;99.90;;;;;;8329379;28;20021;-66
2021/03/18 10:18:34;;;;;;;15.35;8.52;;;6.50;99.90;;;;;;8330673;28;20040;-66
2021/03/18 10:22:38;;;;;;;12.68;8.07;;;7.10;99.90;;;;;;8330557;28;20025;-66
2021/03/18 10:26:39;;;;;;;14.13;8.02;;;6.90;99.90;;;;;;8329979;28;20029;-68
2021/03/18 10:30:46;;;;;;;15.13;8.43;;;6.90;99.90;;;;;;8327672;28;20298;-66
2021/03/18 10:34:54;;;;;;;12.98;7.97;;;6.50;99.90;;;;;;8329974;28;20029;-66
2021/03/18 10:38:59;;;;;;;16.08;8.73;;;6.00;99.90;;;;;;8330028;28;20120;-67
2021/03/18 10:42:59;;;;;;;16.02;9.15;;;5.50;99.90;;;;;;8352054;22;20255;-62
2021/03/18 10:47:20;;;;;;;14.23;8.90;;;5.30;99.90;;;;;;8329445;28;20443;-62
2021/03/18 10:51:21;;;;;;;;;;;5.60;99.90;;;;;;8340708;28;20032;-63
2021/03/18 10:55:23;;;;;;;;;;;6.00;99.90;;;;;;8364047;28;19905;-63
2021/03/18 10:59:24;;;;;;;13.90;8.07;;;5.90;99.90;;;;;;8362673;28;20359;-64
2021/03/18 11:03:28;;;;;;;13.30;7.70;;;6.10;99.90;;;;;;8354734;28;20116;-64
2021/03/18 11:07:30;;;;;;;13.85;7.68;;;;;;;;;;8328363;28;20060;-64
2021/03/18 11:11:32;;;;;;;13.27;7.45;;;;;;;;;;8327845;28;20480;-64
2021/03/18 11:15:53;;;;;;;13.68;7.63;;;14.60;79.50;;;;;;8328201;28;20922;-64
2021/03/18 11:20:15;;;;;;;11.15;7.88;;;18.10;58.00;;;;;;8327801;28;20385;-64
2021/03/18 11:24:20;;;;;;;10.88;7.13;;;18.20;53.00;;;;;;8317454;28;20441;-64
2021/03/18 11:28:21;;;;;;;10.15;6.97;;;19.10;50.40;;;;;;8327983;28;20056;-64
2021/03/18 11:32:23;;;;;;;8.70;6.57;;;19.10;50.60;;;;;;8326979;28;20033;-65
2021/03/18 11:36:24;;;;;;;9.43;7.07;;;;;;;;;;8327322;28;20048;-64
2021/03/18 11:40:25;;;;;;;8.45;6.93;;;20.20;47.40;;;;;;8324454;28;20037;-63
2021/03/18 11:44:29;;;;;;;8.93;7.03;;;20.60;46.20;;;;;;8327966;28;20514;-64
2021/03/18 11:48:29;;;;;;;11.05;7.32;;;20.60;47.60;;;;;;8327324;28;20026;-63
2021/03/18 11:52:32;;;;;;;10.85;7.75;;;17.60;48.70;;;;;;8328012;28;20395;-65
2021/03/18 11:56:33;;;;;;;9.40;6.20;;;;;;;;;;8327305;28;20021;-64
2021/03/18 12:00:36;;;;;;;13.02;7.15;;;12.20;55.40;;;;;;8326422;28;20036;-63
2021/03/18 12:04:37;;;;;;;10.45;6.38;;;;;;;;;;8318855;28;20041;-64
2021/03/18 12:08:38;;;;;;;8.38;6.32;;;11.30;65.50;;;;;;8326320;28;20065;-63
2021/03/18 12:12:39;;;;;;;9.05;6.28;;;11.30;61.50;;;;;;8328931;28;20075;-65
2021/03/18 12:16:40;;;;;;;9.68;5.85;;;10.50;62.50;;;;;;8326864;28;20542;-64
2021/03/18 12:20:40;;;;;;;9.00;5.75;;;8.70;66.90;;;;;;8316837;28;20029;-63
2021/03/18 12:24:41;;;;;;;9.00;5.30;;;8.40;76.70;;;;;;8317759;28;20515;-64
2021/03/18 12:28:42;;;;;;;10.18;5.25;;;7.90;70.00;;;;;;8319784;28;20021;-63
2021/03/18 12:32:44;;;;;;;9.07;5.43;;;8.70;75.10;;;;;;8316960;28;20025;-65
2021/03/18 12:36:44;;;;;;;11.23;6.15;;;8.90;71.20;;;;;;8321962;28;20083;-65
2021/03/18 12:40:45;;;;;;;8.77;5.13;;;9.80;75.70;;;;;;8321685;28;20040;-65
2021/03/18 12:44:46;;;;;;;7.78;5.40;;;11.00;73.30;;;;;;8327785;28;20530;-65
2021/03/18 12:48:46;;;;;;;9.65;5.57;;;11.50;67.60;;;;;;8337228;28;20040;-65
2021/03/18 12:52:47;;;;;;;9.68;4.60;;;11.50;65.30;;;;;;8322909;28;20056;-65
2021/03/18 12:56:48;;;;;;;8.32;5.03;;;10.70;64.20;;;;;;8323409;28;20037;-66
2021/03/18 13:00:49;;;;;;;8.38;5.22;;;9.70;69.60;;;;;;8324107;28;20037;-66
2021/03/18 13:04:49;;;;;;;6.80;5.28;;;13.60;64.70;;;;;;8317658;28;20366;-66
2021/03/18 13:08:50;;;;;;;7.68;5.70;;;18.60;50.00;;;;;;8316213;28;20029;-65
2021/03/18 13:12:52;;;;;;;6.90;5.22;;;16.50;53.60;;;;;;8312867;28;20432;-66
2021/03/18 13:16:53;;;;;;;7.70;5.32;;;14.20;56.60;;;;;;8316086;28;20029;-66
2021/03/18 13:20:54;;;;;;;6.32;4.40;;;12.30;61.60;;;;;;8324951;28;20037;-65
2021/03/18 13:24:54;;;;;;;5.30;4.05;;;10.90;70.00;;;;;;8323605;28;20040;-65
2021/03/18 13:28:55;;;;;;;6.03;4.30;;;10.00;74.60;;;;;;8322154;28;20045;-65
2021/03/18 13:32:56;;;;;;;5.18;3.78;;;9.10;74.80;;;;;;8327017;28;20037;-65
2021/03/18 13:36:57;;;;;;;5.55;3.95;;;8.60;79.20;;;;;;8329499;28;20056;-66
2021/03/18 13:40:58;;;;;;;7.00;4.28;;;8.40;78.50;;;;;;8325519;28;20124;-65
2021/03/18 13:44:59;;;;;;;5.22;3.50;;;8.20;74.40;;;;;;8326996;28;20029;-66
2021/03/18 13:48:59;;;;;;;7.68;4.65;;;7.90;81.40;;;;;;8320255;28;20044;-65
2021/03/18 13:53:00;;;;;;;9.10;5.55;;;7.70;80.90;;;;;;8327461;28;20029;-66
2021/03/18 13:57:01;;;;;;;7.03;4.63;;;8.00;80.30;;;;;;8326361;28;20033;-64
2021/03/18 14:01:02;;;;;;;6.68;4.32;;;8.50;75.10;;;;;;8319453;28;20545;-66
2021/03/18 14:05:03;;;;;;;9.05;4.85;;;9.30;78.40;;;;;;8325107;28;20052;-66
2021/03/18 14:09:04;;;;;;;7.55;4.57;;;9.90;77.00;;;;;;8328335;28;20112;-67
2021/03/18 14:13:10;;;;;;;6.22;4.50;;;10.20;77.00;;;;;;8323882;28;20028;-66
2021/03/18 14:17:11;;;;;;;6.53;4.60;;;9.70;78.40;;;;;;8327300;28;20068;-66
2021/03/18 14:21:12;;;;;;;8.32;5.15;;;9.30;79.10;;;;;;8326362;28;20018;-66
2021/03/18 14:25:13;;;;;;;6.70;4.93;;;8.90;80.20;;;;;;8328803;28;20035;-66
2021/03/18 14:29:14;;;;;;;5.88;4.40;;;9.60;80.90;;;;;;8314596;28;20032;-66
2021/03/18 14:33:15;;;;;;;8.68;5.22;;;13.00;73.60;;;;;;8322710;28;20042;-66
2021/03/18 14:37:16;;;;;;;8.25;4.85;;;14.30;61.60;;;;;;8327527;28;20025;-66
2021/03/18 14:41:17;;;;;;;9.40;5.05;;;12.10;65.90;;;;;;8326790;28;20025;-66
2021/03/18 14:45:18;;;;;;;6.70;5.00;;;10.40;71.10;;;;;;8321329;28;20044;-66
2021/03/18 14:49:18;;;;;;;6.50;4.53;;;9.20;75.70;;;;;;8326548;28;20541;-65
2021/03/18 14:53:22;;;;;;;9.60;4.93;;;8.90;81.40;;;;;;8331739;28;20061;-65
2021/03/18 14:57:23;;;;;;;6.35;4.45;;;;;;;;;;8327614;28;20013;-65
2021/03/18 15:01:23;;;;;;;9.20;4.68;;;16.40;56.90;;;;;;8328640;28;20084;-66
2021/03/18 15:05:24;;;;;;;9.57;4.65;;;17.00;64.70;;;;;;8328151;28;20132;-66
2021/03/18 15:09:25;;;;;;;7.20;4.88;;;14.80;60.50;;;;;;8328181;28;20041;-65
2021/03/18 15:13:27;;;;;;;7.45;4.70;;;13.50;66.60;;;;;;8328473;28;20026;-65
2021/03/18 15:17:27;;;;;;;8.20;4.82;;;14.10;66.00;;;;;;8327675;28;20033;-64
2021/03/18 15:21:28;;;;;;;4.38;2.60;;;13.50;60.90;;;;;;8326807;28;20040;-65
2021/03/18 15:25:29;;;;;;;7.43;4.88;;;10.70;69.90;;;;;;8327578;28;20035;-66
2021/03/18 15:29:29;;;;;;;6.20;4.28;;;10.00;75.20;;;;;;8328180;28;20030;-66
2021/03/18 15:33:30;;;;;;;8.07;4.20;;;11.30;69.30;;;;;;8323568;28;20267;-66
2021/03/18 15:37:31;;;;;;;6.57;4.65;;;12.60;63.90;;;;;;8326563;28;20037;-67
2021/03/18 15:41:33;;;;;;;6.70;4.72;;;13.10;61.90;;;;;;8328132;28;20045;-66
2021/03/18 15:45:40;;;;;;;6.32;4.25;;;13.10;63.00;;;;;;8307927;28;20033;-66
2021/03/18 15:49:40;;;;;;;6.18;5.13;;;12.70;63.00;;;;;;8307766;28;20488;-66
2021/03/18 15:53:42;;;;;;;8.05;4.30;;;12.40;64.90;;;;;;8313584;28;20079;-66
2021/03/18 15:57:44;;;;;;;6.18;4.22;;;12.60;62.70;;;;;;8317078;28;20033;-66
2021/03/18 16:01:44;;;;;;;5.05;3.55;;;12.00;63.70;;;;;;8313425;28;20029;-66
2021/03/18 16:05:45;;;;;;;11.38;5.78;;;11.30;65.40;;;;;;8311425;28;20103;-66
2021/03/18 16:09:47;;;;;;;7.88;5.13;;;11.20;67.20;;;;;;8306881;28;20555;-66
2021/03/18 16:13:48;;;;;;;8.40;5.28;;;11.70;65.70;;;;;;8303812;28;20033;-66
2021/03/18 16:17:48;;;;;;;7.47;5.03;;;11.70;65.30;;;;;;8310675;28;20041;-66
2021/03/18 16:21:49;;;;;;;7.78;5.43;;;11.30;68.30;;;;;;8315682;28;20033;-66
2021/03/18 16:25:51;;;;;;;6.75;4.60;;;10.80;70.10;;;;;;8321683;28;20037;-67
2021/03/18 16:29:53;;;;;;;7.25;5.18;;;11.90;67.60;;;;;;8320249;28;20036;-65
2021/03/18 16:33:53;;;;;;;8.65;4.40;;;11.90;66.60;;;;;;8323120;28;20024;-66
2021/03/18 16:37:54;;;;;;;7.22;5.05;;;11.30;68.50;;;;;;8336142;28;20024;-66
2021/03/18 16:41:55;;;;;;;16.15;12.27;;;11.30;67.70;;;;;;8336877;28;20040;-66
2021/03/18 16:46:00;;;;;;;9.40;5.85;;;10.30;68.70;;;;;;8347477;28;20060;-66
2021/03/18 16:50:01;;;;;;;13.68;8.55;;;10.20;68.70;;;;;;8352387;22;20064;-69
2021/03/18 16:54:02;;;;;;;9.65;6.03;;;8.50;74.10;;;;;;8351928;28;20538;-69
2021/03/18 16:58:05;;;;;;;4.15;3.33;;;7.60;79.30;;;;;;8355053;28;20053;-69
2021/03/18 17:02:06;;;;;;;21.60;12.57;;;7.30;83.50;;;;;;8324760;28;20111;-69
2021/03/18 17:06:07;;;;;;;4.88;3.60;;;;;;;;;;8318465;28;20128;-69
2021/03/18 17:10:21;;;;;;;6.03;4.00;;;6.70;99.90;;;;;;8317657;28;20044;-69
2021/03/18 17:14:22;;;;;;;5.82;3.60;;;6.20;88.30;;;;;;8323195;28;20071;-68
2021/03/18 17:18:23;;;;;;;7.63;4.00;;;5.60;91.70;;;;;;8321612;28;20029;-69
2021/03/18 17:22:24;;;;;;;5.32;3.50;;;5.10;92.70;;;;;;8320073;28;20395;-69
2021/03/18 17:26:26;;;;;;;6.70;4.20;;;4.60;94.80;;;;;;8321987;28;20051;-69
2021/03/18 17:30:28;;;;;;;5.72;4.03;;;4.10;98.20;;;;;;8317998;28;20105;-69
2021/03/18 17:34:28;;;;;;;7.15;4.00;;;3.80;99.90;;;;;;8318903;28;20505;-70
2021/03/18 17:38:29;;;;;;;5.95;3.83;;;3.50;99.90;;;;;;8321555;28;20028;-69
2021/03/18 17:42:30;;;;;;;7.75;3.70;;;3.30;99.90;;;;;;8327354;28;20488;-69
2021/03/18 17:46:30;;;;;;;6.30;4.00;;;3.20;99.90;;;;;;8327724;28;20373;-69
2021/03/18 17:50:32;;;;;;;6.93;4.00;;;3.20;99.90;;;;;;8329458;28;20029;-69
2021/03/18 17:54:33;;;;;;;11.88;6.63;;;3.30;99.90;;;;;;8326322;28;20080;-68
2021/03/18 17:58:33;;;;;;;6.63;4.53;;;3.40;99.90;;;;;;8328385;28;20113;-68
2021/03/18 18:02:34;;;;;;;6.22;3.88;;;3.20;99.90;;;;;;8325891;28;20117;-68
2021/03/18 18:06:35;;;;;;;7.50;4.68;;;3.30;99.90;;;;;;8327060;28;20029;-68
2021/03/18 18:10:35;;;;;;;6.03;3.72;;;3.30;99.90;;;;;;8324421;28;20053;-69
2021/03/18 18:14:36;;;;;;;8.88;5.57;;;2.90;99.90;;;;;;8326183;28;20048;-68
2021/03/18 18:18:37;;;;;;;9.82;6.07;;;2.00;99.90;;;;;;8328439;28;20434;-68
2021/03/18 18:22:38;;;;;;;10.18;5.30;;;1.60;99.90;;;;;;8341970;28;20108;-68
2021/03/18 18:26:39;;;;;;;9.50;5.65;;;1.60;99.90;;;;;;8322869;28;20045;-68
2021/03/18 18:30:40;;;;;;;13.88;7.40;;;1.50;99.90;;;;;;8327463;28;20033;-68
2021/03/18 18:34:41;;;;;;;57.03;23.45;;;1.40;99.90;;;;;;8322924;28;20108;-68
2021/03/18 18:38:42;;;;;;;22.02;11.40;;;1.60;99.90;;;;;;8329791;28;20034;-70
2021/03/18 18:42:43;;;;;;;20.40;11.13;;;1.60;99.90;;;;;;8320863;28;20032;-69
2021/03/18 18:46:44;;;;;;;9.45;6.70;;;1.50;99.90;;;;;;8313174;28;20032;-69
2021/03/18 18:50:45;;;;;;;20.50;10.43;;;1.30;99.90;;;;;;8314984;28;20035;-69
2021/03/18 18:54:46;;;;;;;15.45;10.10;;;1.30;99.90;;;;;;8311844;28;20021;-70
2021/03/18 18:58:47;;;;;;;13.95;8.88;;;1.20;99.90;;;;;;8311693;28;20040;-69
2021/03/18 19:02:47;;;;;;;13.52;9.13;;;1.10;99.90;;;;;;8304503;28;21601;-70
2021/03/18 19:06:51;;;;;;;12.40;7.45;;;1.10;99.90;;;;;;8310901;28;20581;-70
2021/03/18 19:10:51;;;;;;;13.38;8.90;;;1.20;99.90;;;;;;8310754;28;20038;-69
2021/03/18 19:14:52;;;;;;;16.73;10.20;;;1.10;99.90;;;;;;8307924;28;20504;-71
2021/03/18 19:18:52;;;;;;;15.52;9.38;;;1.10;99.90;;;;;;8310274;28;20116;-69
2021/03/18 19:22:53;;;;;;;15.93;10.23;;;1.20;99.90;;;;;;8317102;28;20029;-69
2021/03/18 19:26:54;;;;;;;16.02;9.02;;;1.00;99.90;;;;;;8316679;28;20057;-70
2021/03/18 19:30:55;;;;;;;15.20;9.73;;;1.10;99.90;;;;;;8315159;28;20539;-69
2021/03/18 19:34:55;;;;;;;10.77;6.43;;;1.20;99.90;;;;;;8297731;28;20495;-69
2021/03/18 19:38:56;;;;;;;11.98;7.40;;;1.50;99.90;;;;;;8313556;28;20083;-69
2021/03/18 19:42:57;;;;;;;15.45;7.45;;;1.40;99.90;;;;;;8302083;28;20420;-69
2021/03/18 19:46:58;;;;;;;10.65;6.47;;;1.40;99.90;;;;;;8290688;28;20112;-70
2021/03/18 19:51:01;;;;;;;12.30;6.35;;;1.40;99.90;;;;;;8295006;28;20034;-68
2021/03/18 19:55:04;;;;;;;13.98;6.78;;;1.50;99.90;;;;;;8297866;28;20029;-68
2021/03/18 19:59:04;;;;;;;16.48;7.78;;;1.40;99.90;;;;;;8301093;28;20021;-68
2021/03/18 20:03:05;;;;;;;27.92;15.70;;;1.50;99.90;;;;;;8306001;28;20059;-68
2021/03/18 20:07:08;;;;;;;21.08;11.13;;;1.30;99.90;;;;;;8309603;28;20028;-68
2021/03/18 20:11:09;;;;;;;24.33;13.38;;;1.40;99.90;;;;;;8299970;28;20034;-68
2021/03/18 20:15:11;;;;;;;26.73;14.18;;;1.40;99.90;;;;;;8291055;28;20084;-67
2021/03/18 20:19:12;;;;;;;31.42;14.07;;;1.30;99.90;;;;;;8294254;28;20056;-68
2021/03/18 20:23:12;;;;;;;22.88;12.77;;;1.40;99.90;;;;;;8306869;28;20045;-68
2021/03/18 20:27:13;;;;;;;24.98;13.35;;;1.30;99.90;;;;;;8303857;28;20120;-68
2021/03/18 20:31:15;;;;;;;26.52;13.27;;;1.40;99.90;;;;;;8291825;28;20030;-68
2021/03/18 20:35:16;;;;;;;21.88;10.82;;;1.30;99.90;;;;;;8298633;28;20030;-68
2021/03/18 20:39:17;;;;;;;20.88;11.90;;;1.20;99.90;;;;;;8319412;28;20029;-68
2021/03/18 20:43:18;;;;;;;17.77;9.55;;;1.20;99.90;;;;;;8326509;28;20083;-68
2021/03/18 20:47:19;;;;;;;24.20;12.75;;;1.20;99.90;;;;;;8327072;28;20112;-69
2021/03/18 20:51:20;;;;;;;38.60;18.90;;;1.30;99.90;;;;;;8317133;28;20030;-69
2021/03/18 20:55:22;;;;;;;23.30;12.25;;;1.50;99.90;;;;;;8320965;28;20447;-69
2021/03/18 20:59:23;;;;;;;29.17;15.38;;;1.30;99.90;;;;;;8320156;28;20037;-68
2021/03/18 21:03:23;;;;;;;28.48;15.27;;;1.50;99.90;;;;;;8323780;28;20025;-69
2021/03/18 21:07:24;;;;;;;32.40;16.40;;;1.30;99.90;;;;;;8326530;28;20029;-69
2021/03/18 21:11:25;;;;;;;22.77;13.57;;;1.10;99.90;;;;;;8316573;28;20499;-70